windsock image

Welcome to Bigfield Strip.

anemometer image
     

 Help for dials.  
 
Local Met:

Wind:   
10 Min average:  
63 ° / 0.0 kts (0.9)
68° / 1.3

Temperature:  
10.0°C C
Dew Point:  
8.1°C C
QNH:  
Trend:  
1017.4 mb mb
-0.5mb/hr
BigField Strip. This image updates approximately every minute, it can have a two minute delay.  
 

Humidity:  
88 %
Sunrise:   03:56z
Sunset:   20:05z
Updated:  
  UTC
 
   More met info, trends, radar, history etc. available here   

LUTON Metar   EGGW 251020Z AUTO 35007KT 310V050 8000 -RA OVC004 09/08 Q1017
 
  TAF   2016/05/25 08:00 TAF AMD EGGW 250857Z 2508/2606 36010KT 9999 BKN011 TEMPO 2508/2513 4000 BR OVC004 PROB30 2513/2518 SCT015 BECMG 2518/2521 27005KT BKN007 PROB30 TEMPO 2520/2606 8000 PROB30 2602/2606 BKN015
 
BENSON Metar   EGUB 251017Z 36006KT 9999 SCT009 OVC020 10/08 Q1018 GRN TEMPO SCT015 WHT
 
  TAF   2016/05/25 09:03 TAF EGUB 250742Z 2509/2518 36008KT 9999 BKN018 TEMPO 2509/2512 FEW018 BKN030 PROB40 TEMPO 2509/2511 SCT014 PROB30 TEMPO 2517/2518 SCT014
 
Big Field view 1 icon   Big Field view 2 icon   Big Field view 3 icon   Chart AL3a in PDF icon   Chart AL3a in Word icon

WARNING:
This information is provided by the Airstrip unofficial weather station, DO NOT depend on the data provided here for any purpose.
This page is updated for latest Metars & TAF's every 5 minutes. Refresh the browser to check for the lastest.
Page designed for a minimum browser size of 1024x768.
© Copyright 2016 BigField Strip. This page auto generated 10:56 UTC - 25/05/2016   Contact Us
Valid HTML 4.01 Transitional     Windows uptime: 2 Days 4 Hours 58 Minutes 5 Seconds    WD started: 06:04 23/05/16    Free memory: 1528MB     Valid CSS!